Time;durP1;ratioP1;P1;durP2;ratioP2;P2;SDS_P1;SDS_P2;PMS_P1;PMS_P2;Temp;Humidity;BMP_temperature;BMP_pressure;BME280_temperature;BME280_humidity;BME280_pressure;Samples;Min_cycle;Max_cycle;Signal;HPM_P1;HPM_P2
2021/05/17 00:02:21;;;;;;;14.13;7.30;;;16.50;92.10;;;;;;4974471;28;20019;-77
2021/05/17 00:04:48;;;;;;;10.63;7.15;;;16.50;93.00;;;;;;4974589;28;20023;-77
2021/05/17 00:07:15;;;;;;;10.88;7.50;;;16.50;93.60;;;;;;4974594;28;20466;-77
2021/05/17 00:09:42;;;;;;;11.95;7.15;;;16.50;94.20;;;;;;4974283;28;20451;-77
2021/05/17 00:12:09;;;;;;;8.82;6.13;;;16.40;94.50;;;;;;4974343;28;20490;-78
2021/05/17 00:14:36;;;;;;;9.68;6.25;;;16.50;94.80;;;;;;4974394;28;20369;-77
2021/05/17 00:17:02;;;;;;;8.02;6.07;;;16.50;95.30;;;;;;4974249;28;20111;-77
2021/05/17 00:19:28;;;;;;;11.80;6.90;;;16.50;95.80;;;;;;4974526;28;20054;-77
2021/05/17 00:21:54;;;;;;;5.95;5.35;;;16.50;96.10;;;;;;4974185;28;20031;-78
2021/05/17 00:24:20;;;;;;;7.95;5.50;;;16.50;96.40;;;;;;4974314;28;20489;-77
2021/05/17 00:26:47;;;;;;;12.23;6.20;;;16.50;96.50;;;;;;4974109;28;20115;-76
2021/05/17 00:29:13;;;;;;;9.25;6.00;;;16.50;96.60;;;;;;4974165;28;20075;-76
2021/05/17 00:31:40;;;;;;;10.00;7.30;;;16.50;96.80;;;;;;4974267;28;20525;-77
2021/05/17 00:34:07;;;;;;;9.23;5.63;;;16.50;96.90;;;;;;4973956;28;20019;-76
2021/05/17 00:36:33;;;;;;;8.85;5.57;;;16.40;97.10;;;;;;4974126;28;20023;-76
2021/05/17 00:39:00;;;;;;;11.82;5.53;;;16.50;97.30;;;;;;4974125;28;20030;-76
2021/05/17 00:41:28;;;;;;;8.95;5.63;;;16.50;97.40;;;;;;4974036;28;20664;-76
2021/05/17 00:43:54;;;;;;;10.95;6.28;;;16.50;97.60;;;;;;4973863;28;20245;-76
2021/05/17 00:46:22;;;;;;;12.93;5.70;;;16.50;97.70;;;;;;4973836;28;20029;-76
2021/05/17 00:48:49;;;;;;;10.50;5.90;;;16.50;98.00;;;;;;4973872;28;20093;-77
2021/05/17 00:51:15;;;;;;;11.85;5.22;;;16.50;98.30;;;;;;4973911;28;20794;-76
2021/05/17 00:53:42;;;;;;;11.00;5.10;;;16.50;98.50;;;;;;4974135;28;20034;-76
2021/05/17 00:56:08;;;;;;;7.65;5.05;;;16.50;98.50;;;;;;5005110;28;20041;-76
2021/05/17 00:58:34;;;;;;;7.80;5.20;;;16.50;98.60;;;;;;4973608;28;20455;-77
2021/05/17 01:01:04;;;;;;;10.65;5.13;;;16.50;98.60;;;;;;4973576;28;20098;-77
2021/05/17 01:03:30;;;;;;;6.97;4.97;;;16.50;98.70;;;;;;4974227;28;20037;-77
2021/05/17 01:05:58;;;;;;;6.30;5.07;;;16.50;98.70;;;;;;4973846;28;20105;-76
2021/05/17 01:08:46;;;;;;;8.65;5.35;;;16.50;98.70;;;;;;4973741;28;20664;-77
2021/05/17 01:11:12;;;;;;;7.72;5.70;;;16.40;98.80;;;;;;4973657;28;20133;-77
2021/05/17 01:13:41;;;;;;;10.38;5.82;;;16.40;99.00;;;;;;4972284;28;20030;-76
2021/05/17 01:16:07;;;;;;;12.10;6.03;;;16.40;99.20;;;;;;4973430;28;20470;-76
2021/05/17 01:18:33;;;;;;;14.55;7.13;;;16.40;99.40;;;;;;4973509;28;20027;-76
2021/05/17 01:21:00;;;;;;;9.00;6.97;;;16.40;99.60;;;;;;4973554;28;20030;-76
2021/05/17 01:23:43;;;;;;;10.63;6.20;;;16.30;99.80;;;;;;4973428;28;20169;-76
2021/05/17 01:26:10;;;;;;;11.68;7.03;;;16.30;99.80;;;;;;4973272;28;20015;-76
2021/05/17 01:28:38;;;;;;;14.27;7.57;;;16.30;99.90;;;;;;4973226;28;20521;-76
2021/05/17 01:31:05;;;;;;;14.15;8.50;;;16.20;99.90;;;;;;4973182;28;20030;-77
2021/05/17 01:33:34;;;;;;;13.75;8.20;;;16.20;99.90;;;;;;4973061;28;20023;-76
2021/05/17 01:36:01;;;;;;;12.00;8.38;;;16.20;99.90;;;;;;5004626;28;20031;-76
2021/05/17 01:38:28;;;;;;;16.27;8.90;;;16.20;99.90;;;;;;4973269;28;20034;-77
2021/05/17 01:40:57;;;;;;;18.65;9.30;;;16.20;99.90;;;;;;4973436;28;20058;-76
2021/05/17 01:43:24;;;;;;;14.45;9.00;;;16.20;99.90;;;;;;4973249;28;20026;-76
2021/05/17 01:45:50;;;;;;;12.10;9.18;;;16.10;99.90;;;;;;4973474;28;20133;-77
2021/05/17 01:48:25;;;;;;;14.70;9.18;;;16.10;99.90;;;;;;4973203;28;20675;-76
2021/05/17 01:50:51;;;;;;;15.85;9.38;;;16.10;99.90;;;;;;5004460;28;20343;-76
2021/05/17 01:53:18;;;;;;;19.08;10.57;;;16.10;99.90;;;;;;4973233;28;20033;-82
2021/05/17 01:55:44;;;;;;;14.85;9.20;;;16.00;99.90;;;;;;4973704;28;20031;-82
2021/05/17 01:58:22;;;;;;;15.10;8.38;;;16.00;99.90;;;;;;4973494;28;20050;-82
2021/05/17 02:00:48;;;;;;;15.50;9.10;;;16.00;99.90;;;;;;4973513;28;20381;-83
2021/05/17 02:03:14;;;;;;;12.88;8.80;;;16.00;99.90;;;;;;4973400;28;20035;-82
2021/05/17 02:05:41;;;;;;;10.85;8.30;;;16.00;99.90;;;;;;4973525;28;20031;-81
2021/05/17 02:08:11;;;;;;;10.00;7.18;;;16.00;99.90;;;;;;4973316;28;20102;-80
2021/05/17 02:10:39;;;;;;;8.43;7.10;;;16.00;99.90;;;;;;4974661;28;20510;-80
2021/05/17 02:13:08;;;;;;;42.78;32.15;;;16.00;99.90;;;;;;4975671;28;20122;-81
2021/05/17 02:15:36;;;;;;;8.68;7.15;;;15.90;99.90;;;;;;4973192;28;20077;-80
2021/05/17 02:18:08;;;;;;;9.30;6.40;;;15.90;99.90;;;;;;4974079;28;20027;-80
2021/05/17 02:20:36;;;;;;;9.63;7.00;;;15.90;99.90;;;;;;4973622;28;20023;-80
2021/05/17 02:23:03;;;;;;;11.48;6.20;;;15.90;99.90;;;;;;4973073;28;20034;-80
2021/05/17 02:25:30;;;;;;;9.48;6.57;;;15.90;99.90;;;;;;5008076;28;20489;-80
2021/05/17 02:27:56;;;;;;;7.03;5.90;;;15.90;99.90;;;;;;4977060;28;20043;-81
2021/05/17 02:30:23;;;;;;;6.30;5.60;;;15.90;99.90;;;;;;4976839;28;20105;-80
2021/05/17 02:32:50;;;;;;;7.95;5.47;;;15.90;99.90;;;;;;4975601;28;20034;-80
2021/05/17 02:35:18;;;;;;;5.80;4.72;;;15.90;99.90;;;;;;4977127;28;20042;-81
2021/05/17 02:37:43;;;;;;;6.10;5.22;;;15.90;99.90;;;;;;4977041;28;20050;-80
2021/05/17 02:40:10;;;;;;;8.70;5.88;;;15.90;99.90;;;;;;4977382;28;20466;-81
2021/05/17 02:42:36;;;;;;;7.90;5.85;;;15.90;99.90;;;;;;4977282;28;20466;-82
2021/05/17 02:45:06;;;;;;;7.22;5.78;;;16.00;99.90;;;;;;4977197;28;20027;-83
2021/05/17 02:47:37;;;;;;;8.25;5.68;;;16.00;99.90;;;;;;5010343;28;20053;-82
2021/05/17 02:50:05;;;;;;;7.53;6.43;;;16.00;99.90;;;;;;4978611;28;20019;-82
2021/05/17 02:52:31;;;;;;;7.35;5.43;;;16.00;99.90;;;;;;4977386;28;20071;-82
2021/05/17 02:55:05;;;;;;;6.82;6.13;;;16.00;99.90;;;;;;4977222;28;20062;-82
2021/05/17 02:57:39;;;;;;;8.80;5.53;;;16.10;99.90;;;;;;4976903;28;20185;-82
2021/05/17 03:00:17;;;;;;;9.00;5.38;;;16.10;99.90;;;;;;4976544;28;20504;-77
2021/05/17 03:02:52;;;;;;;7.93;6.03;;;16.10;99.90;;;;;;4975677;28;20466;-77
2021/05/17 03:05:18;;;;;;;7.03;6.15;;;16.20;99.90;;;;;;4975928;28;20027;-77
2021/05/17 03:07:52;;;;;;;7.22;5.75;;;16.20;99.90;;;;;;4975486;28;20042;-76
2021/05/17 03:10:17;;;;;;;6.53;5.90;;;16.20;99.90;;;;;;4975441;28;20015;-76
2021/05/17 03:12:44;;;;;;;8.45;6.07;;;16.30;99.90;;;;;;4975523;28;20037;-78
2021/05/17 03:15:12;;;;;;;7.25;5.43;;;16.20;99.90;;;;;;4975737;28;20102;-76
2021/05/17 03:17:39;;;;;;;5.93;5.13;;;16.30;99.90;;;;;;4975479;28;20105;-76
2021/05/17 03:20:06;;;;;;;6.63;5.28;;;16.30;99.90;;;;;;4975216;28;20033;-75
2021/05/17 03:22:33;;;;;;;5.93;4.97;;;16.30;99.90;;;;;;4975232;28;20026;-76
2021/05/17 03:25:01;;;;;;;11.40;6.05;;;16.30;99.90;;;;;;4975288;28;20465;-78
2021/05/17 03:27:29;;;;;;;10.32;6.10;;;16.30;99.90;;;;;;4975200;28;20027;-77
2021/05/17 03:29:56;;;;;;;8.15;5.82;;;16.30;99.90;;;;;;4975267;28;20030;-77
2021/05/17 03:32:24;;;;;;;8.13;5.43;;;16.30;99.90;;;;;;4975169;28;20030;-77
2021/05/17 03:34:50;;;;;;;10.00;5.80;;;16.40;99.90;;;;;;4974640;28;20077;-77
2021/05/17 03:37:17;;;;;;;9.82;5.40;;;16.40;99.90;;;;;;4974805;28;20413;-77
2021/05/17 03:39:49;;;;;;;10.02;5.63;;;16.40;99.90;;;;;;4975024;28;20082;-77
2021/05/17 03:42:16;;;;;;;9.55;6.22;;;16.40;99.90;;;;;;5005862;28;20354;-77
2021/05/17 03:44:41;;;;;;;10.20;5.80;;;16.40;99.90;;;;;;4974884;28;20019;-77
2021/05/17 03:47:07;;;;;;;7.78;5.80;;;16.40;99.90;;;;;;4974729;28;20022;-77
2021/05/17 03:49:34;;;;;;;7.70;6.53;;;16.40;99.90;;;;;;4974958;28;20022;-77
2021/05/17 03:51:59;;;;;;;14.48;7.90;;;16.40;99.90;;;;;;4974880;28;20178;-79
2021/05/17 03:54:25;;;;;;;19.95;14.23;;;16.40;99.90;;;;;;5005936;28;20559;-78
2021/05/17 03:56:51;;;;;;;27.38;20.88;;;16.40;99.90;;;;;;4974678;28;20023;-79
2021/05/17 03:59:17;;;;;;;15.43;10.95;;;16.50;99.90;;;;;;4974734;28;20023;-79
2021/05/17 04:01:45;;;;;;;13.50;8.23;;;16.50;99.90;;;;;;4974295;28;20493;-78
2021/05/17 04:04:11;;;;;;;9.35;7.25;;;16.50;99.90;;;;;;4974481;28;20027;-78
2021/05/17 04:14:46;;;;;;;7.75;5.53;;;16.60;99.90;;;;;;4974464;28;20042;-78
2021/05/17 04:17:11;;;;;;;9.95;5.72;;;16.60;99.90;;;;;;4974327;28;20030;-78
2021/05/17 04:19:37;;;;;;;9.48;6.78;;;16.50;99.90;;;;;;4974040;28;20401;-78
2021/05/17 04:22:03;;;;;;;13.48;9.98;;;16.50;99.90;;;;;;4974078;28;20034;-78
2021/05/17 04:24:29;;;;;;;10.40;7.78;;;16.60;99.90;;;;;;5005420;28;20019;-78
2021/05/17 04:26:55;;;;;;;8.52;6.88;;;16.60;99.90;;;;;;5005327;28;20026;-77
2021/05/17 04:29:20;;;;;;;13.55;6.10;;;16.70;99.90;;;;;;4973574;28;20490;-78
2021/05/17 04:31:47;;;;;;;9.48;5.85;;;16.70;99.90;;;;;;4973869;28;20110;-79
2021/05/17 04:34:13;;;;;;;9.45;6.65;;;16.80;99.90;;;;;;4973824;28;20054;-79
2021/05/17 04:36:39;;;;;;;7.10;5.60;;;16.90;99.90;;;;;;4973617;28;20029;-79
2021/05/17 04:39:05;;;;;;;11.30;5.57;;;17.00;99.90;;;;;;4973649;28;20023;-78
2021/05/17 04:41:31;;;;;;;8.60;5.47;;;17.10;99.90;;;;;;4973692;28;20061;-77
2021/05/17 04:43:57;;;;;;;10.05;5.95;;;17.20;99.90;;;;;;4973361;28;20062;-77
2021/05/17 04:46:23;;;;;;;8.95;5.75;;;17.30;99.90;;;;;;4972707;28;20031;-78
2021/05/17 04:48:51;;;;;;;7.45;5.25;;;17.50;99.90;;;;;;4973251;28;20567;-77
2021/05/17 04:51:19;;;;;;;6.53;4.85;;;17.50;99.90;;;;;;4973194;28;20034;-80
2021/05/17 04:53:45;;;;;;;6.22;4.53;;;17.70;99.90;;;;;;4973744;28;20101;-81
2021/05/17 04:56:11;;;;;;;5.80;4.70;;;17.80;99.90;;;;;;5005332;28;20030;-82
2021/05/17 04:58:37;;;;;;;6.50;4.35;;;17.90;99.90;;;;;;5004813;28;20056;-83
2021/05/17 05:01:04;;;;;;;5.55;4.72;;;18.10;99.90;;;;;;5004725;28;20117;-83
2021/05/17 05:03:30;;;;;;;9.05;4.88;;;18.40;99.90;;;;;;4973629;28;20034;-82
2021/05/17 05:05:59;;;;;;;5.20;4.30;;;18.60;99.90;;;;;;4973851;28;20034;-83
2021/05/17 05:08:25;;;;;;;5.82;4.25;;;18.90;99.90;;;;;;4973619;28;20029;-84
2021/05/17 05:10:51;;;;;;;9.32;4.90;;;19.20;99.90;;;;;;4973995;28;20362;-82
2021/05/17 05:13:17;;;;;;;6.53;4.63;;;19.40;99.90;;;;;;4972973;28;20027;-83
2021/05/17 05:15:43;;;;;;;5.60;4.65;;;19.70;99.90;;;;;;4974528;28;20023;-83
2021/05/17 05:18:08;;;;;;;9.82;5.32;;;19.90;99.90;;;;;;4974180;28;20054;-83
2021/05/17 05:20:34;;;;;;;6.90;4.68;;;20.00;99.90;;;;;;4974995;28;20042;-83
2021/05/17 05:23:01;;;;;;;8.55;4.65;;;20.00;99.30;;;;;;4973780;28;20105;-83
2021/05/17 05:25:37;;;;;;;8.73;6.70;;;20.00;98.70;;;;;;4974132;28;20019;-85
2021/05/17 05:28:04;;;;;;;7.78;4.93;;;20.00;98.90;;;;;;4973850;28;20047;-84
2021/05/17 05:35:34;;;;;;;7.07;4.30;;;21.40;99.90;;;;;;4974079;28;20478;-85
2021/05/17 05:37:59;;;;;;;5.60;3.90;;;22.40;99.90;;;;;;4973775;28;20031;-85
2021/05/17 05:40:25;;;;;;;5.07;3.63;;;23.10;98.10;;;;;;4973365;28;20091;-85
2021/05/17 05:42:51;;;;;;;6.20;4.05;;;23.70;96.70;;;;;;5004856;28;20038;-85
2021/05/17 05:45:17;;;;;;;8.45;3.45;;;24.40;94.20;;;;;;4973832;28;20019;-84
2021/05/17 05:47:43;;;;;;;7.72;4.60;;;24.50;91.00;;;;;;4973992;28;20015;-84
2021/05/17 05:50:09;;;;;;;5.80;3.80;;;24.40;88.50;;;;;;4974724;28;20029;-85
2021/05/17 05:52:37;;;;;;;5.00;4.20;;;24.30;86.90;;;;;;4975015;28;20050;-85
2021/05/17 05:55:04;;;;;;;4.80;3.88;;;23.90;85.60;;;;;;5005642;28;20077;-84
2021/05/17 05:57:37;;;;;;;9.63;7.03;;;23.70;85.70;;;;;;4973405;28;20447;-85
2021/05/17 06:00:05;;;;;;;9.00;6.93;;;23.50;85.90;;;;;;4978154;28;20094;-83
2021/05/17 06:02:30;;;;;;;8.45;5.55;;;23.30;86.40;;;;;;4978193;28;20369;-83
2021/05/17 06:04:56;;;;;;;5.97;5.35;;;23.30;87.60;;;;;;4978015;28;20026;-84
2021/05/17 06:07:22;;;;;;;6.45;5.75;;;23.30;87.10;;;;;;5009106;28;20524;-84
2021/05/17 06:09:47;;;;;;;7.88;6.28;;;23.20;86.40;;;;;;4977402;28;20105;-85
2021/05/17 06:12:13;;;;;;;13.15;7.78;;;23.00;85.80;;;;;;4977677;28;20102;-85
2021/05/17 06:14:39;;;;;;;11.35;6.40;;;22.80;85.90;;;;;;4977858;28;20023;-84
2021/05/17 06:17:05;;;;;;;18.45;12.05;;;22.70;85.80;;;;;;4977366;28;20049;-84
2021/05/17 06:19:31;;;;;;;14.48;9.60;;;22.60;86.40;;;;;;4976260;28;20034;-83
2021/05/17 06:21:57;;;;;;;7.15;5.13;;;22.60;86.70;;;;;;4977461;28;20378;-84
2021/05/17 06:24:23;;;;;;;8.07;4.25;;;22.80;87.50;;;;;;4977827;28;20023;-84
2021/05/17 06:26:49;;;;;;;5.40;4.25;;;23.20;88.30;;;;;;5008254;28;20062;-81
2021/05/17 06:29:15;;;;;;;6.97;4.03;;;23.90;89.00;;;;;;4977844;28;20042;-82
2021/05/17 06:31:45;;;;;;;4.78;3.95;;;24.80;87.10;;;;;;4977337;28;20058;-82
2021/05/17 06:34:11;;;;;;;6.07;3.88;;;25.30;83.00;;;;;;4976744;28;20082;-82
2021/05/17 06:36:37;;;;;;;8.73;4.50;;;25.60;81.60;;;;;;4976941;28;20054;-83
2021/05/17 06:39:06;;;;;;;12.00;5.78;;;26.00;80.60;;;;;;4978006;28;20031;-82
2021/05/17 06:41:32;;;;;;;13.50;5.30;;;26.30;79.90;;;;;;5008458;28;20037;-84
2021/05/17 06:43:58;;;;;;;7.85;4.40;;;27.00;79.90;;;;;;4977559;28;20019;-81
2021/05/17 06:46:24;;;;;;;6.93;5.00;;;27.70;77.70;;;;;;4976135;28;20034;-82
2021/05/17 06:48:50;;;;;;;9.07;4.10;;;28.40;75.20;;;;;;5008003;28;20326;-83
2021/05/17 06:51:17;;;;;;;6.40;3.70;;;29.10;73.80;;;;;;4977271;28;20446;-82
2021/05/17 06:53:44;;;;;;;15.00;5.22;;;29.90;71.10;;;;;;4976941;28;20465;-82
2021/05/17 06:56:24;;;;;;;8.95;4.15;;;30.20;68.50;;;;;;5008669;28;20027;-83
2021/05/17 06:58:58;;;;;;;12.98;3.85;;;30.40;67.40;;;;;;4977079;28;20066;-83
2021/05/17 07:01:26;;;;;;;6.22;4.00;;;30.70;66.10;;;;;;4977049;28;20027;-83
2021/05/17 07:03:54;;;;;;;5.68;3.63;;;30.80;64.40;;;;;;4977011;28;20058;-82
2021/05/17 07:06:23;;;;;;;24.33;5.72;;;30.80;63.50;;;;;;4976789;28;20490;-82
2021/05/17 07:11:46;;;;;;;12.88;4.75;;;30.10;61.40;;;;;;4976906;28;20033;-83
2021/05/17 07:14:13;;;;;;;13.00;5.53;;;29.30;62.10;;;;;;4976507;28;20513;-83
2021/05/17 07:16:39;;;;;;;15.43;5.07;;;28.50;62.40;;;;;;4976708;28;20038;-82
2021/05/17 07:19:05;;;;;;;9.45;5.03;;;27.70;63.00;;;;;;5008443;28;20038;-83
2021/05/17 07:24:15;;;;;;;10.95;5.30;;;26.20;64.60;;;;;;4975368;28;20030;-84
2021/05/17 07:26:41;;;;;;;10.70;4.93;;;25.40;66.10;;;;;;4975931;28;20102;-83
2021/05/17 07:29:10;;;;;;;12.95;4.90;;;24.80;67.50;;;;;;4977587;28;20055;-83
2021/05/17 07:31:36;;;;;;;8.27;4.63;;;24.30;68.70;;;;;;4976543;28;20077;-83
2021/05/17 07:34:02;;;;;;;7.32;4.55;;;23.80;69.80;;;;;;4976522;28;20382;-83
2021/05/17 07:36:28;;;;;;;6.18;4.78;;;23.40;71.30;;;;;;4974923;28;20030;-80
2021/05/17 07:38:54;;;;;;;7.85;4.60;;;23.00;72.20;;;;;;4975763;28;20031;-82
2021/05/17 07:41:20;;;;;;;6.97;4.60;;;22.70;73.10;;;;;;4976468;28;20027;-82
2021/05/17 07:43:46;;;;;;;7.65;5.00;;;22.30;73.90;;;;;;4976191;28;20034;-83
2021/05/17 07:46:13;;;;;;;7.75;5.05;;;22.10;74.90;;;;;;4976491;28;20027;-83
2021/05/17 07:51:23;;;;;;;6.75;4.95;;;21.60;76.60;;;;;;4975732;28;20038;-84
2021/05/17 07:53:49;;;;;;;7.25;4.85;;;21.40;77.10;;;;;;4976119;28;20027;-83
2021/05/17 07:56:16;;;;;;;8.20;4.80;;;21.20;77.60;;;;;;4976018;28;20030;-84
2021/05/17 07:58:43;;;;;;;10.05;4.88;;;21.00;78.30;;;;;;4975647;28;20030;-84
2021/05/17 08:01:11;;;;;;;11.82;5.10;;;20.90;79.00;;;;;;4975530;28;20536;-83
2021/05/17 08:03:37;;;;;;;10.43;5.50;;;20.70;79.50;;;;;;4975629;28;20114;-84
2021/05/17 08:06:03;;;;;;;12.07;6.00;;;20.50;80.20;;;;;;4974586;28;20114;-84
2021/05/17 08:08:29;;;;;;;17.77;9.38;;;20.30;81.10;;;;;;4975517;28;20050;-84
2021/05/17 08:10:55;;;;;;;12.15;8.23;;;20.10;82.30;;;;;;4976232;28;20019;-84
2021/05/17 08:13:23;;;;;;;20.92;8.50;;;19.90;84.00;;;;;;4975483;28;20035;-84
2021/05/17 08:15:49;;;;;;;22.65;8.52;;;19.70;85.40;;;;;;4975799;28;20054;-85
2021/05/17 08:18:15;;;;;;;9.77;7.15;;;19.60;86.60;;;;;;4977360;28;20026;-85
2021/05/17 08:20:40;;;;;;;10.02;7.35;;;19.40;87.00;;;;;;4976930;28;20030;-84
2021/05/17 08:23:07;;;;;;;12.80;8.30;;;19.20;87.80;;;;;;4974612;28;20402;-83
2021/05/17 08:25:33;;;;;;;13.80;7.45;;;19.10;88.80;;;;;;4975598;28;20027;-84
2021/05/17 08:27:59;;;;;;;12.38;7.93;;;19.00;89.90;;;;;;4974731;28;20074;-83
2021/05/17 08:30:27;;;;;;;12.82;7.78;;;18.90;90.10;;;;;;4974889;28;20098;-85
2021/05/17 08:32:53;;;;;;;11.50;7.53;;;18.80;90.50;;;;;;4975143;28;20771;-85
2021/05/17 08:35:18;;;;;;;11.38;7.28;;;18.80;91.00;;;;;;4975475;28;20059;-85
2021/05/17 08:37:44;;;;;;;10.98;7.00;;;18.80;91.40;;;;;;4978136;28;20027;-84
2021/05/17 08:40:13;;;;;;;11.38;7.65;;;18.80;91.60;;;;;;4975462;28;20105;-84
2021/05/17 08:42:40;;;;;;;12.75;7.47;;;18.80;91.90;;;;;;4973942;28;20058;-84
2021/05/17 08:45:07;;;;;;;8.48;7.35;;;18.80;92.00;;;;;;4974874;28;20023;-83
2021/05/17 08:47:32;;;;;;;11.07;8.00;;;18.80;92.10;;;;;;4975466;28;20098;-83
2021/05/17 08:49:58;;;;;;;7.90;6.35;;;18.80;92.30;;;;;;4975616;28;20050;-83
2021/05/17 08:52:25;;;;;;;8.88;6.85;;;18.80;92.10;;;;;;4974780;28;20022;-84
2021/05/17 08:54:51;;;;;;;13.40;9.60;;;18.90;92.40;;;;;;4976087;28;20536;-83
2021/05/17 08:57:16;;;;;;;13.73;11.40;;;19.00;92.60;;;;;;4974309;28;20030;-84
2021/05/17 08:59:42;;;;;;;8.38;7.13;;;19.20;93.50;;;;;;4974555;28;20027;-84
2021/05/17 09:02:08;;;;;;;7.72;6.20;;;19.40;94.20;;;;;;4974583;28;20027;-83
2021/05/17 09:04:34;;;;;;;13.43;7.03;;;19.70;94.60;;;;;;4974928;28;20390;-84
2021/05/17 09:07:09;;;;;;;13.07;6.15;;;20.10;94.50;;;;;;4974454;28;20165;-84
2021/05/17 09:09:39;;;;;;;9.02;6.25;;;20.50;93.90;;;;;;4975859;28;20026;-84
2021/05/17 09:12:06;;;;;;;10.18;5.55;;;20.90;93.10;;;;;;4974604;28;20105;-84
2021/05/17 09:14:33;;;;;;;7.75;5.85;;;21.20;92.10;;;;;;4974364;28;20061;-84
2021/05/17 09:17:10;;;;;;;6.05;5.45;;;21.30;91.50;;;;;;4973585;28;20026;-83
2021/05/17 09:19:40;;;;;;;9.07;5.40;;;21.60;90.90;;;;;;4974867;28;20026;-83
2021/05/17 09:22:19;;;;;;;8.93;5.65;;;21.80;90.10;;;;;;4972677;28;20161;-84
2021/05/17 09:24:57;;;;;;;11.40;6.25;;;21.90;88.20;;;;;;4974227;28;20512;-83
2021/05/17 09:27:25;;;;;;;8.30;5.65;;;22.10;87.30;;;;;;4972437;28;20366;-82
2021/05/17 09:29:56;;;;;;;5.90;5.32;;;22.30;86.50;;;;;;4975624;28;20023;-82
2021/05/17 09:32:34;;;;;;;7.78;5.25;;;22.50;85.30;;;;;;4975665;28;20102;-82
2021/05/17 09:35:19;;;;;;;8.82;6.05;;;22.70;85.00;;;;;;4974417;28;20034;-83
2021/05/17 09:38:00;;;;;;;10.20;6.07;;;22.90;84.40;;;;;;4971943;28;20354;-83
2021/05/17 09:40:31;;;;;;;6.27;5.67;;;23.10;83.20;;;;;;4972279;28;20751;-83
2021/05/17 09:43:11;;;;;;;7.55;6.15;;;23.30;82.60;;;;;;4972640;28;20053;-83
2021/05/17 09:45:44;;;;;;;9.43;5.90;;;23.50;81.70;;;;;;4973206;28;20061;-84
2021/05/17 09:48:11;;;;;;;7.07;5.50;;;23.70;80.40;;;;;;4972853;28;20023;-78
2021/05/17 09:50:57;;;;;;;6.88;5.38;;;23.90;79.70;;;;;;4971909;28;20077;-80
2021/05/17 09:53:28;;;;;;;10.15;5.43;;;24.10;79.30;;;;;;4972156;28;20035;-80
2021/05/17 09:55:57;;;;;;;8.15;5.60;;;24.40;78.30;;;;;;4971547;28;20409;-80
2021/05/17 09:58:27;;;;;;;15.13;6.00;;;24.60;77.30;;;;;;4970153;28;20053;-80
2021/05/17 10:01:10;;;;;;;8.93;6.20;;;24.70;76.00;;;;;;4971350;28;20074;-83
2021/05/17 10:03:47;;;;;;;10.27;5.80;;;24.90;75.70;;;;;;4972113;28;20093;-81
2021/05/17 10:06:23;;;;;;;8.18;6.40;;;25.20;74.60;;;;;;4972165;28;20077;-81
2021/05/17 10:08:50;;;;;;;14.50;6.85;;;25.50;74.40;;;;;;4972106;28;20058;-82
2021/05/17 10:11:18;;;;;;;8.48;6.45;;;25.70;74.40;;;;;;4973076;28;20456;-81
2021/05/17 10:13:44;;;;;;;7.38;5.60;;;25.80;72.30;;;;;;4972503;28;20418;-81
2021/05/17 10:16:12;;;;;;;9.25;5.78;;;25.90;72.20;;;;;;4971960;28;20473;-82
2021/05/17 10:18:40;;;;;;;10.20;6.40;;;26.00;71.40;;;;;;4972429;28;20524;-82
2021/05/17 10:21:10;;;;;;;19.33;6.45;;;26.00;69.80;;;;;;4971075;28;20090;-81
2021/05/17 10:23:37;;;;;;;18.25;9.25;;;26.00;69.90;;;;;;4971470;28;20031;-80
2021/05/17 10:26:12;;;;;;;8.43;6.07;;;26.10;70.40;;;;;;4971297;28;20075;-80
2021/05/17 10:28:41;;;;;;;22.02;6.78;;;26.00;69.80;;;;;;4971980;28;20047;-80
2021/05/17 10:31:10;;;;;;;11.98;6.70;;;26.00;69.90;;;;;;4971578;28;20030;-77
2021/05/17 10:33:36;;;;;;;16.15;7.20;;;26.10;68.90;;;;;;4969390;28;20081;-78
2021/05/17 10:36:05;;;;;;;9.43;5.97;;;26.00;68.80;;;;;;4971099;28;20027;-76
2021/05/17 10:38:41;;;;;;;13.25;6.07;;;26.10;69.10;;;;;;4970697;28;20429;-77
2021/05/17 10:46:40;;;;;;;17.52;6.93;;;26.30;67.70;;;;;;4975247;28;20030;-80
2021/05/17 10:49:28;;;;;;;13.63;6.17;;;26.40;68.40;;;;;;4975841;28;20054;-80
2021/05/17 10:52:16;;;;;;;8.30;5.13;;;26.60;68.50;;;;;;4974628;28;20077;-80
2021/05/17 10:54:44;;;;;;;10.80;5.15;;;26.70;68.00;;;;;;4972555;28;20035;-80
2021/05/17 10:57:21;;;;;;;7.85;5.43;;;26.80;66.80;;;;;;4972204;28;20043;-82
2021/05/17 11:02:39;;;;;;;15.45;6.05;;;26.80;66.30;;;;;;4973339;28;20057;-79
2021/05/17 11:05:22;;;;;;;11.32;5.80;;;26.90;66.80;;;;;;4988513;28;20152;-79
2021/05/17 11:07:51;;;;;;;9.65;7.00;;;27.10;66.70;;;;;;4975226;28;20156;-79
2021/05/17 11:10:53;;;;;;;17.77;6.25;;;27.40;66.00;;;;;;4974298;28;20498;-79
2021/05/17 11:13:23;;;;;;;8.90;5.40;;;27.50;65.10;;;;;;4972448;28;20753;-82
2021/05/17 11:15:58;;;;;;;7.25;5.20;;;27.60;64.60;;;;;;4973820;28;20045;-81
2021/05/17 11:18:24;;;;;;;12.88;5.65;;;27.60;63.50;;;;;;4977535;28;20057;-81
2021/05/17 11:20:52;;;;;;;6.72;5.00;;;27.50;63.50;;;;;;4977346;28;20058;-81
2021/05/17 11:23:24;;;;;;;8.85;4.78;;;27.40;62.70;;;;;;4974250;28;20035;-79
2021/05/17 11:28:34;;;;;;;11.30;5.28;;;27.20;62.00;;;;;;4975137;28;20054;-81
2021/05/17 11:34:04;;;;;;;12.75;5.57;;;27.20;63.70;;;;;;4974021;28;19917;-80
2021/05/17 11:36:32;;;;;;;6.00;5.18;;;27.20;62.80;;;;;;4975160;28;20037;-81
2021/05/17 11:39:19;;;;;;;9.00;5.13;;;27.10;62.10;;;;;;4972945;28;20038;-80
2021/05/17 11:41:55;;;;;;;13.00;5.85;;;27.00;61.60;;;;;;4989248;28;20027;-80
2021/05/17 11:44:55;;;;;;;7.90;4.28;;;26.80;61.60;;;;;;4975137;28;20027;-82
2021/05/17 11:47:24;;;;;;;7.13;5.10;;;26.60;61.40;;;;;;4974225;28;20037;-80
2021/05/17 11:49:52;;;;;;;10.80;5.50;;;26.50;61.70;;;;;;4973451;28;20114;-81
2021/05/17 11:52:21;;;;;;;15.40;7.13;;;26.30;61.70;;;;;;4973259;28;20031;-77
2021/05/17 11:54:54;;;;;;;7.68;5.47;;;26.10;62.20;;;;;;4972844;28;20023;-77
2021/05/17 11:57:26;;;;;;;5.60;5.10;;;26.00;62.50;;;;;;4972979;28;20019;-77
2021/05/17 11:59:52;;;;;;;9.00;5.38;;;26.00;62.50;;;;;;4972553;28;20034;-77
2021/05/17 12:02:18;;;;;;;11.20;5.75;;;26.10;62.80;;;;;;4973485;28;20023;-79
2021/05/17 12:04:45;;;;;;;13.35;5.85;;;26.20;63.10;;;;;;4973479;28;20031;-77
2021/05/17 12:07:16;;;;;;;11.73;5.28;;;26.20;63.10;;;;;;4973215;28;20019;-79
2021/05/17 12:09:54;;;;;;;15.13;8.60;;;26.20;63.10;;;;;;4973502;28;20062;-81
2021/05/17 12:12:20;;;;;;;17.52;7.43;;;26.30;63.10;;;;;;4974357;28;20026;-80
2021/05/17 12:14:57;;;;;;;10.68;6.85;;;26.20;63.60;;;;;;4974119;28;20336;-82
2021/05/17 12:17:25;;;;;;;10.20;7.53;;;26.20;64.00;;;;;;4972541;28;20081;-80
2021/05/17 12:20:01;;;;;;;13.77;8.23;;;26.00;63.30;;;;;;4972680;28;20027;-80
2021/05/17 12:22:36;;;;;;;25.85;10.77;;;25.90;63.20;;;;;;4973640;28;20023;-80
2021/05/17 12:25:10;;;;;;;12.32;8.20;;;25.70;63.50;;;;;;4973202;28;20042;-81
2021/05/17 12:27:36;;;;;;;15.00;8.75;;;25.70;64.00;;;;;;4973717;28;20066;-81
2021/05/17 12:30:09;;;;;;;10.77;8.70;;;25.60;64.30;;;;;;4972648;28;20038;-80
2021/05/17 12:32:52;;;;;;;17.58;9.20;;;25.60;64.60;;;;;;4972916;28;20023;-80
2021/05/17 12:35:31;;;;;;;20.55;8.85;;;25.60;64.60;;;;;;4974044;28;20026;-80
2021/05/17 12:37:59;;;;;;;23.40;8.00;;;25.60;64.80;;;;;;4974208;28;20474;-80
2021/05/17 12:40:28;;;;;;;10.77;5.65;;;25.70;64.50;;;;;;4973950;28;20058;-81
2021/05/17 12:43:10;;;;;;;11.73;5.85;;;25.60;63.60;;;;;;4973809;28;20109;-81
2021/05/17 12:45:50;;;;;;;11.80;6.53;;;25.70;63.30;;;;;;4972197;28;20031;-80
2021/05/17 12:48:25;;;;;;;17.75;6.88;;;25.80;63.00;;;;;;4973318;28;20791;-82
2021/05/17 12:50:56;;;;;;;8.63;4.35;;;25.90;62.50;;;;;;4971569;28;20030;-80
2021/05/17 12:53:30;;;;;;;17.85;4.57;;;26.00;61.60;;;;;;4972833;28;20065;-80
2021/05/17 12:55:58;;;;;;;12.98;5.13;;;26.00;61.20;;;;;;4971375;28;20039;-80
2021/05/17 12:58:39;;;;;;;9.63;5.53;;;26.10;60.50;;;;;;4972729;28;20470;-79
2021/05/17 13:01:31;;;;;;;10.85;5.40;;;26.10;60.40;;;;;;4972349;28;20026;-79
2021/05/17 13:03:57;;;;;;;8.05;5.95;;;26.10;60.60;;;;;;4969043;28;20054;-78
2021/05/17 13:06:28;;;;;;;7.10;5.65;;;26.20;60.80;;;;;;4972062;28;20070;-78
2021/05/17 13:09:05;;;;;;;12.52;4.85;;;26.20;60.70;;;;;;4971435;28;20027;-77
2021/05/17 13:11:33;;;;;;;9.48;5.03;;;26.40;60.10;;;;;;4972426;28;20037;-78
2021/05/17 13:14:13;;;;;;;11.10;5.35;;;26.50;59.80;;;;;;4971756;28;20034;-78
2021/05/17 13:16:41;;;;;;;11.05;5.32;;;26.60;59.30;;;;;;4970612;28;20401;-78
2021/05/17 13:30:53;;;;;;;8.63;4.50;;;26.60;57.70;;;;;;4972490;28;20037;-80
2021/05/17 13:33:43;;;;;;;9.60;4.47;;;26.50;57.90;;;;;;4972761;28;20034;-80
2021/05/17 13:36:14;;;;;;;14.75;6.05;;;26.30;57.80;;;;;;4972785;28;20506;-80
2021/05/17 13:38:51;;;;;;;6.25;4.70;;;26.10;58.40;;;;;;4972648;28;20100;-80
2021/05/17 13:41:23;;;;;;;12.07;5.20;;;26.00;58.30;;;;;;4972609;28;20039;-80